Terminal Aerodrome Forecast
Issued by NWS

Home | Current Version | Previous Version | Text Only | Print | Product List | Glossary On
Versions: 1 2 3 4 5 6 7 8 9 10 11 12 13 14 15 16 17 18
000
FTUS44 KMAF 271700
TAFCNM
TAF
KCNM 271738Z 2718/2818 10010KT P6SM OVC020
      TEMPO 2718/2722 5SM -SNPL OVC009
     FM280400 11007KT P6SM OVC010
      TEMPO 2804/2808 4SM -FZDZSNPL OVC005=

USA.gov is the U.S. government's official web portal to all federal, state and local government web resources and services.